sensor_id;sensor_type;location;lat;lon;timestamp;temperature;humidity
46490;DHT22;32204;49.160;8.580;2023-09-18T00:00:25;22.30;99.90
46490;DHT22;32204;49.160;8.580;2023-09-18T00:02:51;22.30;99.90
46490;DHT22;32204;49.160;8.580;2023-09-18T00:05:17;22.30;99.90
46490;DHT22;32204;49.160;8.580;2023-09-18T00:07:43;22.20;99.90
46490;DHT22;32204;49.160;8.580;2023-09-18T00:10:12;22.20;99.90
46490;DHT22;32204;49.160;8.580;2023-09-18T00:12:38;22.30;99.90
46490;DHT22;32204;49.160;8.580;2023-09-18T00:15:05;22.30;99.90
46490;DHT22;32204;49.160;8.580;2023-09-18T00:17:31;22.20;99.90
46490;DHT22;32204;49.160;8.580;2023-09-18T00:19:57;22.20;99.90
46490;DHT22;32204;49.160;8.580;2023-09-18T00:22:22;22.30;99.90
46490;DHT22;32204;49.160;8.580;2023-09-18T00:24:49;22.30;99.90
46490;DHT22;32204;49.160;8.580;2023-09-18T00:27:15;22.30;99.90
46490;DHT22;32204;49.160;8.580;2023-09-18T00:29:42;22.30;99.90
46490;DHT22;32204;49.160;8.580;2023-09-18T00:32:07;22.30;99.90
46490;DHT22;32204;49.160;8.580;2023-09-18T00:34:33;22.20;99.90
46490;DHT22;32204;49.160;8.580;2023-09-18T00:36:59;22.10;99.90
46490;DHT22;32204;49.160;8.580;2023-09-18T00:39:25;22.00;99.90
46490;DHT22;32204;49.160;8.580;2023-09-18T00:41:51;22.20;99.90
46490;DHT22;32204;49.160;8.580;2023-09-18T00:44:20;22.40;99.90
46490;DHT22;32204;49.160;8.580;2023-09-18T00:46:46;22.40;99.90
46490;DHT22;32204;49.160;8.580;2023-09-18T00:49:12;22.40;99.90
46490;DHT22;32204;49.160;8.580;2023-09-18T00:51:39;22.50;99.90
46490;DHT22;32204;49.160;8.580;2023-09-18T00:54:05;22.60;69.70
46490;DHT22;32204;49.160;8.580;2023-09-18T00:56:33;22.60;19.50
46490;DHT22;32204;49.160;8.580;2023-09-18T00:58:59;22.70;20.20
46490;DHT22;32204;49.160;8.580;2023-09-18T01:01:25;22.70;1.00
46490;DHT22;32204;49.160;8.580;2023-09-18T01:03:51;22.70;1.00
46490;DHT22;32204;49.160;8.580;2023-09-18T01:06:19;22.80;1.00
46490;DHT22;32204;49.160;8.580;2023-09-18T01:08:45;22.90;1.00
46490;DHT22;32204;49.160;8.580;2023-09-18T01:11:50;22.90;11.30
46490;DHT22;32204;49.160;8.580;2023-09-18T01:16:59;22.50;99.90
46490;DHT22;32204;49.160;8.580;2023-09-18T01:19:45;22.30;99.90
46490;DHT22;32204;49.160;8.580;2023-09-18T01:22:16;22.40;99.90
46490;DHT22;32204;49.160;8.580;2023-09-18T01:24:43;22.60;65.90
46490;DHT22;32204;49.160;8.580;2023-09-18T01:27:11;22.70;44.40
46490;DHT22;32204;49.160;8.580;2023-09-18T01:29:38;22.90;4.90
46490;DHT22;32204;49.160;8.580;2023-09-18T01:32:04;23.00;1.00
46490;DHT22;32204;49.160;8.580;2023-09-18T01:34:34;23.00;1.00
46490;DHT22;32204;49.160;8.580;2023-09-18T01:37:06;23.10;1.00
46490;DHT22;32204;49.160;8.580;2023-09-18T01:39:34;23.20;1.00
46490;DHT22;32204;49.160;8.580;2023-09-18T01:42:01;23.20;1.00
46490;DHT22;32204;49.160;8.580;2023-09-18T01:44:31;23.30;1.00
46490;DHT22;32204;49.160;8.580;2023-09-18T01:47:02;23.30;1.00
46490;DHT22;32204;49.160;8.580;2023-09-18T01:49:29;23.20;1.00
46490;DHT22;32204;49.160;8.580;2023-09-18T01:51:56;23.20;1.00
46490;DHT22;32204;49.160;8.580;2023-09-18T01:54:21;23.10;1.00
46490;DHT22;32204;49.160;8.580;2023-09-18T01:56:47;23.20;1.00
46490;DHT22;32204;49.160;8.580;2023-09-18T01:59:13;23.20;1.00
46490;DHT22;32204;49.160;8.580;2023-09-18T02:01:38;23.30;1.00
46490;DHT22;32204;49.160;8.580;2023-09-18T02:04:05;23.10;1.00
46490;DHT22;32204;49.160;8.580;2023-09-18T02:06:30;23.00;1.00
46490;DHT22;32204;49.160;8.580;2023-09-18T02:08:56;23.00;1.00
46490;DHT22;32204;49.160;8.580;2023-09-18T02:11:21;23.00;8.30
46490;DHT22;32204;49.160;8.580;2023-09-18T02:13:47;23.10;1.00
46490;DHT22;32204;49.160;8.580;2023-09-18T02:16:13;23.10;1.00
46490;DHT22;32204;49.160;8.580;2023-09-18T02:18:38;23.10;1.00
46490;DHT22;32204;49.160;8.580;2023-09-18T02:21:04;23.20;1.00
46490;DHT22;32204;49.160;8.580;2023-09-18T02:23:29;23.10;1.00
46490;DHT22;32204;49.160;8.580;2023-09-18T02:25:59;23.10;1.00
46490;DHT22;32204;49.160;8.580;2023-09-18T02:28:24;22.90;1.00
46490;DHT22;32204;49.160;8.580;2023-09-18T02:30:51;22.90;96.90
46490;DHT22;32204;49.160;8.580;2023-09-18T02:33:16;22.80;99.90
46490;DHT22;32204;49.160;8.580;2023-09-18T02:35:42;22.70;99.90
46490;DHT22;32204;49.160;8.580;2023-09-18T02:38:10;22.60;99.90
46490;DHT22;32204;49.160;8.580;2023-09-18T02:40:36;22.60;99.90
46490;DHT22;32204;49.160;8.580;2023-09-18T02:43:01;22.60;1.00
46490;DHT22;32204;49.160;8.580;2023-09-18T02:45:27;22.50;1.00
46490;DHT22;32204;49.160;8.580;2023-09-18T02:47:53;22.50;1.00
46490;DHT22;32204;49.160;8.580;2023-09-18T02:50:19;22.50;1.00
46490;DHT22;32204;49.160;8.580;2023-09-18T02:52:44;22.50;1.00
46490;DHT22;32204;49.160;8.580;2023-09-18T02:55:10;22.30;1.00
46490;DHT22;32204;49.160;8.580;2023-09-18T02:57:36;22.30;1.00
46490;DHT22;32204;49.160;8.580;2023-09-18T03:00:02;22.30;1.00
46490;DHT22;32204;49.160;8.580;2023-09-18T03:02:28;22.30;24.30
46490;DHT22;32204;49.160;8.580;2023-09-18T03:04:55;22.30;21.60
46490;DHT22;32204;49.160;8.580;2023-09-18T03:07:21;22.30;24.40
46490;DHT22;32204;49.160;8.580;2023-09-18T03:09:47;22.30;43.90
46490;DHT22;32204;49.160;8.580;2023-09-18T03:12:13;22.30;95.50
46490;DHT22;32204;49.160;8.580;2023-09-18T03:14:38;22.30;87.70
46490;DHT22;32204;49.160;8.580;2023-09-18T03:17:04;22.40;79.80
46490;DHT22;32204;49.160;8.580;2023-09-18T03:19:30;22.40;17.70
46490;DHT22;32204;49.160;8.580;2023-09-18T03:21:56;22.40;25.10
46490;DHT22;32204;49.160;8.580;2023-09-18T03:24:21;22.30;63.70
46490;DHT22;32204;49.160;8.580;2023-09-18T03:26:47;22.30;99.90
46490;DHT22;32204;49.160;8.580;2023-09-18T03:29:14;22.10;99.90
46490;DHT22;32204;49.160;8.580;2023-09-18T03:31:40;22.10;99.90
46490;DHT22;32204;49.160;8.580;2023-09-18T03:34:05;22.00;99.90
46490;DHT22;32204;49.160;8.580;2023-09-18T03:36:31;22.00;99.90
46490;DHT22;32204;49.160;8.580;2023-09-18T03:38:57;22.00;1.00
46490;DHT22;32204;49.160;8.580;2023-09-18T03:41:22;22.00;1.00
46490;DHT22;32204;49.160;8.580;2023-09-18T03:43:48;21.90;1.00
46490;DHT22;32204;49.160;8.580;2023-09-18T03:46:14;21.90;1.00
46490;DHT22;32204;49.160;8.580;2023-09-18T03:48:40;21.90;1.00
46490;DHT22;32204;49.160;8.580;2023-09-18T03:51:06;21.90;1.00
46490;DHT22;32204;49.160;8.580;2023-09-18T03:53:33;21.90;1.00
46490;DHT22;32204;49.160;8.580;2023-09-18T03:55:59;21.80;46.30
46490;DHT22;32204;49.160;8.580;2023-09-18T03:58:25;21.80;64.60
46490;DHT22;32204;49.160;8.580;2023-09-18T04:00:52;21.90;99.90
46490;DHT22;32204;49.160;8.580;2023-09-18T04:03:18;21.90;99.90
46490;DHT22;32204;49.160;8.580;2023-09-18T04:05:43;21.80;99.90
46490;DHT22;32204;49.160;8.580;2023-09-18T04:08:09;21.80;1.00
46490;DHT22;32204;49.160;8.580;2023-09-18T04:10:35;21.70;99.90
46490;DHT22;32204;49.160;8.580;2023-09-18T04:13:00;21.70;99.90
46490;DHT22;32204;49.160;8.580;2023-09-18T04:15:26;21.50;99.90
46490;DHT22;32204;49.160;8.580;2023-09-18T04:17:53;21.50;99.90
46490;DHT22;32204;49.160;8.580;2023-09-18T04:20:18;21.40;1.00
46490;DHT22;32204;49.160;8.580;2023-09-18T04:22:45;21.30;16.00
46490;DHT22;32204;49.160;8.580;2023-09-18T04:25:15;21.10;99.90
46490;DHT22;32204;49.160;8.580;2023-09-18T04:27:41;21.10;99.90
46490;DHT22;32204;49.160;8.580;2023-09-18T04:30:07;21.00;99.90
46490;DHT22;32204;49.160;8.580;2023-09-18T04:32:35;20.90;99.90
46490;DHT22;32204;49.160;8.580;2023-09-18T04:35:01;20.80;1.00
46490;DHT22;32204;49.160;8.580;2023-09-18T04:37:27;20.80;1.00
46490;DHT22;32204;49.160;8.580;2023-09-18T04:39:52;20.80;99.90
46490;DHT22;32204;49.160;8.580;2023-09-18T04:42:18;20.80;1.00
46490;DHT22;32204;49.160;8.580;2023-09-18T04:44:44;20.80;99.90
46490;DHT22;32204;49.160;8.580;2023-09-18T04:47:10;20.80;1.00
46490;DHT22;32204;49.160;8.580;2023-09-18T04:49:35;21.00;99.90
46490;DHT22;32204;49.160;8.580;2023-09-18T04:52:01;21.10;1.00
46490;DHT22;32204;49.160;8.580;2023-09-18T04:54:26;21.20;1.00
46490;DHT22;32204;49.160;8.580;2023-09-18T04:56:52;21.20;99.90
46490;DHT22;32204;49.160;8.580;2023-09-18T04:59:17;21.20;1.00
46490;DHT22;32204;49.160;8.580;2023-09-18T05:01:43;21.30;99.90
46490;DHT22;32204;49.160;8.580;2023-09-18T05:04:09;21.30;99.90
46490;DHT22;32204;49.160;8.580;2023-09-18T05:06:35;21.40;99.90
46490;DHT22;32204;49.160;8.580;2023-09-18T05:09:01;21.30;99.90
46490;DHT22;32204;49.160;8.580;2023-09-18T05:11:27;21.30;1.00
46490;DHT22;32204;49.160;8.580;2023-09-18T05:13:52;21.40;99.90
46490;DHT22;32204;49.160;8.580;2023-09-18T05:16:18;21.40;94.80
46490;DHT22;32204;49.160;8.580;2023-09-18T05:18:44;21.40;99.90
46490;DHT22;32204;49.160;8.580;2023-09-18T05:21:09;21.40;99.90
46490;DHT22;32204;49.160;8.580;2023-09-18T05:23:36;21.40;99.90
46490;DHT22;32204;49.160;8.580;2023-09-18T05:26:01;21.40;99.90
46490;DHT22;32204;49.160;8.580;2023-09-18T05:28:28;21.30;19.30
46490;DHT22;32204;49.160;8.580;2023-09-18T05:30:54;21.30;99.90
46490;DHT22;32204;49.160;8.580;2023-09-18T05:33:20;21.30;99.90
46490;DHT22;32204;49.160;8.580;2023-09-18T05:35:46;21.30;99.90
46490;DHT22;32204;49.160;8.580;2023-09-18T05:38:12;21.20;99.90
46490;DHT22;32204;49.160;8.580;2023-09-18T05:40:42;21.30;99.90
46490;DHT22;32204;49.160;8.580;2023-09-18T05:43:09;21.40;99.90
46490;DHT22;32204;49.160;8.580;2023-09-18T05:45:35;21.50;99.90
46490;DHT22;32204;49.160;8.580;2023-09-18T05:48:01;21.40;98.40
46490;DHT22;32204;49.160;8.580;2023-09-18T05:50:30;21.30;45.40
46490;DHT22;32204;49.160;8.580;2023-09-18T05:52:57;21.20;99.90
46490;DHT22;32204;49.160;8.580;2023-09-18T05:55:26;21.10;1.00
46490;DHT22;32204;49.160;8.580;2023-09-18T05:57:53;20.90;99.90
46490;DHT22;32204;49.160;8.580;2023-09-18T06:00:19;20.80;99.90
46490;DHT22;32204;49.160;8.580;2023-09-18T06:02:44;20.70;99.90
46490;DHT22;32204;49.160;8.580;2023-09-18T06:05:11;20.80;99.90
46490;DHT22;32204;49.160;8.580;2023-09-18T06:07:37;20.80;99.90
46490;DHT22;32204;49.160;8.580;2023-09-18T06:10:03;20.90;99.90
46490;DHT22;32204;49.160;8.580;2023-09-18T06:12:29;21.00;99.90
46490;DHT22;32204;49.160;8.580;2023-09-18T06:14:55;21.00;99.90
46490;DHT22;32204;49.160;8.580;2023-09-18T06:17:21;21.00;99.90
46490;DHT22;32204;49.160;8.580;2023-09-18T06:19:47;21.10;99.90
46490;DHT22;32204;49.160;8.580;2023-09-18T06:22:13;21.10;99.90
46490;DHT22;32204;49.160;8.580;2023-09-18T06:24:39;21.10;99.90
46490;DHT22;32204;49.160;8.580;2023-09-18T06:27:05;21.10;99.90
46490;DHT22;32204;49.160;8.580;2023-09-18T06:29:32;21.10;29.70
46490;DHT22;32204;49.160;8.580;2023-09-18T06:31:58;21.00;99.90
46490;DHT22;32204;49.160;8.580;2023-09-18T06:34:24;20.90;99.90
46490;DHT22;32204;49.160;8.580;2023-09-18T06:36:50;21.00;99.90
46490;DHT22;32204;49.160;8.580;2023-09-18T06:39:15;21.10;99.90
46490;DHT22;32204;49.160;8.580;2023-09-18T06:41:41;21.10;99.90
46490;DHT22;32204;49.160;8.580;2023-09-18T06:44:07;21.10;99.90
46490;DHT22;32204;49.160;8.580;2023-09-18T06:46:33;21.10;99.90
46490;DHT22;32204;49.160;8.580;2023-09-18T06:48:58;21.10;60.00
46490;DHT22;32204;49.160;8.580;2023-09-18T06:51:27;21.00;99.90
46490;DHT22;32204;49.160;8.580;2023-09-18T06:53:55;20.90;99.90
46490;DHT22;32204;49.160;8.580;2023-09-18T06:56:25;20.90;99.90
46490;DHT22;32204;49.160;8.580;2023-09-18T06:58:51;20.90;99.90
46490;DHT22;32204;49.160;8.580;2023-09-18T07:01:21;20.80;99.90
46490;DHT22;32204;49.160;8.580;2023-09-18T07:03:47;20.80;1.00
46490;DHT22;32204;49.160;8.580;2023-09-18T07:06:14;20.80;1.00
46490;DHT22;32204;49.160;8.580;2023-09-18T07:08:46;20.90;1.00
46490;DHT22;32204;49.160;8.580;2023-09-18T07:11:13;21.00;99.90
46490;DHT22;32204;49.160;8.580;2023-09-18T07:13:38;21.00;99.90
46490;DHT22;32204;49.160;8.580;2023-09-18T07:16:05;20.90;99.90
46490;DHT22;32204;49.160;8.580;2023-09-18T07:18:30;20.90;1.00
46490;DHT22;32204;49.160;8.580;2023-09-18T07:20:56;20.80;1.00
46490;DHT22;32204;49.160;8.580;2023-09-18T07:23:22;20.80;1.00
46490;DHT22;32204;49.160;8.580;2023-09-18T07:25:48;20.80;99.90
46490;DHT22;32204;49.160;8.580;2023-09-18T07:28:13;20.80;99.90
46490;DHT22;32204;49.160;8.580;2023-09-18T07:30:43;20.90;99.90
46490;DHT22;32204;49.160;8.580;2023-09-18T07:33:09;20.90;99.90
46490;DHT22;32204;49.160;8.580;2023-09-18T07:35:35;20.90;99.90
46490;DHT22;32204;49.160;8.580;2023-09-18T07:38:01;20.90;99.90
46490;DHT22;32204;49.160;8.580;2023-09-18T07:40:26;20.90;99.90
46490;DHT22;32204;49.160;8.580;2023-09-18T07:42:52;20.90;99.90
46490;DHT22;32204;49.160;8.580;2023-09-18T07:45:18;20.90;19.60
46490;DHT22;32204;49.160;8.580;2023-09-18T07:47:44;20.90;1.00
46490;DHT22;32204;49.160;8.580;2023-09-18T07:50:10;20.90;1.00
46490;DHT22;32204;49.160;8.580;2023-09-18T07:52:35;21.00;28.10
46490;DHT22;32204;49.160;8.580;2023-09-18T07:55:01;21.00;1.00
46490;DHT22;32204;49.160;8.580;2023-09-18T07:57:27;21.10;99.90
46490;DHT22;32204;49.160;8.580;2023-09-18T07:59:58;21.10;1.00
46490;DHT22;32204;49.160;8.580;2023-09-18T08:02:24;21.10;1.00
46490;DHT22;32204;49.160;8.580;2023-09-18T08:04:50;21.20;99.90
46490;DHT22;32204;49.160;8.580;2023-09-18T08:07:19;21.20;26.10
46490;DHT22;32204;49.160;8.580;2023-09-18T08:09:44;21.20;1.00
46490;DHT22;32204;49.160;8.580;2023-09-18T08:12:13;21.20;1.00
46490;DHT22;32204;49.160;8.580;2023-09-18T08:14:38;21.20;56.70
46490;DHT22;32204;49.160;8.580;2023-09-18T08:17:04;21.20;54.00
46490;DHT22;32204;49.160;8.580;2023-09-18T08:19:30;21.20;49.00
46490;DHT22;32204;49.160;8.580;2023-09-18T08:21:58;21.10;1.00
46490;DHT22;32204;49.160;8.580;2023-09-18T08:24:25;21.10;99.90
46490;DHT22;32204;49.160;8.580;2023-09-18T08:26:51;21.00;99.90
46490;DHT22;32204;49.160;8.580;2023-09-18T08:29:16;21.00;1.00
46490;DHT22;32204;49.160;8.580;2023-09-18T08:31:43;21.10;1.00
46490;DHT22;32204;49.160;8.580;2023-09-18T08:34:08;21.10;99.90
46490;DHT22;32204;49.160;8.580;2023-09-18T08:36:34;21.10;99.90
46490;DHT22;32204;49.160;8.580;2023-09-18T08:39:00;21.10;1.00
46490;DHT22;32204;49.160;8.580;2023-09-18T08:41:28;21.00;99.90
46490;DHT22;32204;49.160;8.580;2023-09-18T08:44:00;21.00;1.00
46490;DHT22;32204;49.160;8.580;2023-09-18T08:46:26;21.00;1.00
46490;DHT22;32204;49.160;8.580;2023-09-18T08:48:52;21.00;1.00
46490;DHT22;32204;49.160;8.580;2023-09-18T08:51:19;21.00;1.00
46490;DHT22;32204;49.160;8.580;2023-09-18T08:53:46;21.00;99.90
46490;DHT22;32204;49.160;8.580;2023-09-18T08:56:13;21.00;99.90
46490;DHT22;32204;49.160;8.580;2023-09-18T08:58:40;21.10;99.90
46490;DHT22;32204;49.160;8.580;2023-09-18T09:01:09;21.10;99.90
46490;DHT22;32204;49.160;8.580;2023-09-18T09:03:38;21.20;99.90
46490;DHT22;32204;49.160;8.580;2023-09-18T09:06:06;21.20;1.00
46490;DHT22;32204;49.160;8.580;2023-09-18T09:08:33;21.30;1.00
46490;DHT22;32204;49.160;8.580;2023-09-18T09:10:58;21.40;99.90
46490;DHT22;32204;49.160;8.580;2023-09-18T09:13:25;21.40;99.90
46490;DHT22;32204;49.160;8.580;2023-09-18T09:15:53;21.50;1.00
46490;DHT22;32204;49.160;8.580;2023-09-18T09:18:22;21.60;99.90
46490;DHT22;32204;49.160;8.580;2023-09-18T09:20:58;21.70;99.90
46490;DHT22;32204;49.160;8.580;2023-09-18T09:23:30;21.80;1.00
46490;DHT22;32204;49.160;8.580;2023-09-18T09:26:14;21.80;99.90
46490;DHT22;32204;49.160;8.580;2023-09-18T09:28:40;21.80;99.90
46490;DHT22;32204;49.160;8.580;2023-09-18T09:31:08;21.80;99.90
46490;DHT22;32204;49.160;8.580;2023-09-18T09:33:34;21.90;1.00
46490;DHT22;32204;49.160;8.580;2023-09-18T09:36:00;21.90;1.00
46490;DHT22;32204;49.160;8.580;2023-09-18T09:38:30;21.80;99.90
46490;DHT22;32204;49.160;8.580;2023-09-18T09:41:00;21.80;99.90
46490;DHT22;32204;49.160;8.580;2023-09-18T09:43:27;21.80;99.90
46490;DHT22;32204;49.160;8.580;2023-09-18T09:46:15;21.90;1.00
46490;DHT22;32204;49.160;8.580;2023-09-18T09:48:57;22.00;99.90
46490;DHT22;32204;49.160;8.580;2023-09-18T09:51:24;22.00;99.90
46490;DHT22;32204;49.160;8.580;2023-09-18T09:53:50;22.00;1.00
46490;DHT22;32204;49.160;8.580;2023-09-18T09:56:17;22.00;99.90
46490;DHT22;32204;49.160;8.580;2023-09-18T09:59:07;22.10;99.90
46490;DHT22;32204;49.160;8.580;2023-09-18T10:01:34;22.10;99.90
46490;DHT22;32204;49.160;8.580;2023-09-18T10:04:05;22.00;99.90
46490;DHT22;32204;49.160;8.580;2023-09-18T10:06:34;22.10;1.00
46490;DHT22;32204;49.160;8.580;2023-09-18T10:09:04;22.20;99.90
46490;DHT22;32204;49.160;8.580;2023-09-18T10:11:33;22.10;99.90
46490;DHT22;32204;49.160;8.580;2023-09-18T10:16:40;22.30;99.90
46490;DHT22;32204;49.160;8.580;2023-09-18T10:19:25;22.30;99.90
46490;DHT22;32204;49.160;8.580;2023-09-18T10:24:39;22.30;1.00
46490;DHT22;32204;49.160;8.580;2023-09-18T10:27:07;22.40;51.20
46490;DHT22;32204;49.160;8.580;2023-09-18T10:29:35;22.40;1.00
46490;DHT22;32204;49.160;8.580;2023-09-18T10:32:03;22.30;99.90
46490;DHT22;32204;49.160;8.580;2023-09-18T10:34:38;22.40;99.90
46490;DHT22;32204;49.160;8.580;2023-09-18T10:37:07;22.50;99.90
46490;DHT22;32204;49.160;8.580;2023-09-18T10:39:35;22.50;99.90
46490;DHT22;32204;49.160;8.580;2023-09-18T10:42:02;22.40;1.00
46490;DHT22;32204;49.160;8.580;2023-09-18T10:44:29;22.40;1.00
46490;DHT22;32204;49.160;8.580;2023-09-18T10:46:57;22.50;1.00
46490;DHT22;32204;49.160;8.580;2023-09-18T10:49:24;22.50;1.00
46490;DHT22;32204;49.160;8.580;2023-09-18T10:51:54;22.60;99.90
46490;DHT22;32204;49.160;8.580;2023-09-18T10:54:24;22.50;99.90
46490;DHT22;32204;49.160;8.580;2023-09-18T10:56:51;22.70;99.90
46490;DHT22;32204;49.160;8.580;2023-09-18T10:59:17;22.90;99.90
46490;DHT22;32204;49.160;8.580;2023-09-18T11:01:43;23.00;99.90
46490;DHT22;32204;49.160;8.580;2023-09-18T11:04:10;23.10;99.90
46490;DHT22;32204;49.160;8.580;2023-09-18T11:09:22;23.10;99.90
46490;DHT22;32204;49.160;8.580;2023-09-18T11:12:04;23.10;99.90
46490;DHT22;32204;49.160;8.580;2023-09-18T11:14:55;23.10;99.90
46490;DHT22;32204;49.160;8.580;2023-09-18T11:17:38;23.20;99.90
46490;DHT22;32204;49.160;8.580;2023-09-18T11:20:20;23.10;95.50
46490;DHT22;32204;49.160;8.580;2023-09-18T11:23:09;23.20;99.90
46490;DHT22;32204;49.160;8.580;2023-09-18T11:25:37;23.20;38.80
46490;DHT22;32204;49.160;8.580;2023-09-18T11:28:07;23.30;26.90
46490;DHT22;32204;49.160;8.580;2023-09-18T11:30:35;23.40;1.00
46490;DHT22;32204;49.160;8.580;2023-09-18T11:33:05;23.40;1.00
46490;DHT22;32204;49.160;8.580;2023-09-18T11:35:35;23.40;1.00
46490;DHT22;32204;49.160;8.580;2023-09-18T11:38:08;23.40;1.00
46490;DHT22;32204;49.160;8.580;2023-09-18T11:40:36;23.40;1.00
46490;DHT22;32204;49.160;8.580;2023-09-18T11:43:26;23.50;1.00
46490;DHT22;32204;49.160;8.580;2023-09-18T11:45:53;23.50;1.00
46490;DHT22;32204;49.160;8.580;2023-09-18T11:48:23;23.60;1.00
46490;DHT22;32204;49.160;8.580;2023-09-18T11:50:56;23.70;1.00
46490;DHT22;32204;49.160;8.580;2023-09-18T11:53:24;23.80;1.00
46490;DHT22;32204;49.160;8.580;2023-09-18T11:55:50;23.90;1.00
46490;DHT22;32204;49.160;8.580;2023-09-18T11:58:16;24.00;1.00
46490;DHT22;32204;49.160;8.580;2023-09-18T12:00:42;24.20;1.00
46490;DHT22;32204;49.160;8.580;2023-09-18T12:03:18;24.20;1.00
46490;DHT22;32204;49.160;8.580;2023-09-18T12:05:58;24.10;99.90
46490;DHT22;32204;49.160;8.580;2023-09-18T12:08:24;24.10;99.90
46490;DHT22;32204;49.160;8.580;2023-09-18T12:10:54;24.10;99.90
46490;DHT22;32204;49.160;8.580;2023-09-18T12:13:21;24.00;99.90
46490;DHT22;32204;49.160;8.580;2023-09-18T12:15:48;24.10;99.90
46490;DHT22;32204;49.160;8.580;2023-09-18T12:18:15;24.10;99.90
46490;DHT22;32204;49.160;8.580;2023-09-18T12:20:46;24.20;99.90
46490;DHT22;32204;49.160;8.580;2023-09-18T12:23:11;24.30;99.90
46490;DHT22;32204;49.160;8.580;2023-09-18T12:25:39;24.40;99.90
46490;DHT22;32204;49.160;8.580;2023-09-18T12:28:06;24.40;99.90
46490;DHT22;32204;49.160;8.580;2023-09-18T12:30:33;24.30;99.90
46490;DHT22;32204;49.160;8.580;2023-09-18T12:32:59;24.30;99.90
46490;DHT22;32204;49.160;8.580;2023-09-18T12:35:29;24.30;99.90
46490;DHT22;32204;49.160;8.580;2023-09-18T12:38:01;24.30;99.90
46490;DHT22;32204;49.160;8.580;2023-09-18T12:40:30;24.10;99.90
46490;DHT22;32204;49.160;8.580;2023-09-18T12:42:58;24.10;99.90
46490;DHT22;32204;49.160;8.580;2023-09-18T12:45:25;24.10;99.90
46490;DHT22;32204;49.160;8.580;2023-09-18T12:47:53;24.20;99.90
46490;DHT22;32204;49.160;8.580;2023-09-18T12:50:19;24.20;99.90
46490;DHT22;32204;49.160;8.580;2023-09-18T12:52:44;24.30;99.90
46490;DHT22;32204;49.160;8.580;2023-09-18T12:55:24;24.30;99.90
46490;DHT22;32204;49.160;8.580;2023-09-18T12:57:50;24.50;99.90
46490;DHT22;32204;49.160;8.580;2023-09-18T13:00:20;24.40;99.90
46490;DHT22;32204;49.160;8.580;2023-09-18T13:02:52;24.40;99.90
46490;DHT22;32204;49.160;8.580;2023-09-18T13:05:21;24.50;99.90
46490;DHT22;32204;49.160;8.580;2023-09-18T13:07:51;24.60;99.90
46490;DHT22;32204;49.160;8.580;2023-09-18T13:10:16;24.60;99.90
46490;DHT22;32204;49.160;8.580;2023-09-18T13:12:50;24.70;99.90
46490;DHT22;32204;49.160;8.580;2023-09-18T13:17:52;24.90;99.90
46490;DHT22;32204;49.160;8.580;2023-09-18T13:20:21;25.00;99.90
46490;DHT22;32204;49.160;8.580;2023-09-18T13:22:51;25.10;99.90
46490;DHT22;32204;49.160;8.580;2023-09-18T13:25:40;25.20;99.90
46490;DHT22;32204;49.160;8.580;2023-09-18T13:28:10;25.20;99.90
46490;DHT22;32204;49.160;8.580;2023-09-18T13:30:37;25.30;99.90
46490;DHT22;32204;49.160;8.580;2023-09-18T13:33:07;25.10;99.90
46490;DHT22;32204;49.160;8.580;2023-09-18T13:35:35;24.90;99.90
46490;DHT22;32204;49.160;8.580;2023-09-18T13:38:01;24.80;99.90
46490;DHT22;32204;49.160;8.580;2023-09-18T13:40:29;24.80;99.90
46490;DHT22;32204;49.160;8.580;2023-09-18T13:42:55;24.90;99.90
46490;DHT22;32204;49.160;8.580;2023-09-18T13:45:21;24.90;99.90
46490;DHT22;32204;49.160;8.580;2023-09-18T13:47:46;24.80;99.90
46490;DHT22;32204;49.160;8.580;2023-09-18T13:50:15;24.90;99.90
46490;DHT22;32204;49.160;8.580;2023-09-18T13:52:40;24.90;99.90
46490;DHT22;32204;49.160;8.580;2023-09-18T13:55:06;24.90;99.90
46490;DHT22;32204;49.160;8.580;2023-09-18T13:57:32;25.10;99.90
46490;DHT22;32204;49.160;8.580;2023-09-18T14:00:01;25.20;99.90
46490;DHT22;32204;49.160;8.580;2023-09-18T14:02:30;25.30;99.90
46490;DHT22;32204;49.160;8.580;2023-09-18T14:04:56;25.50;99.90
46490;DHT22;32204;49.160;8.580;2023-09-18T14:07:22;25.60;99.90
46490;DHT22;32204;49.160;8.580;2023-09-18T14:09:48;25.60;99.90
46490;DHT22;32204;49.160;8.580;2023-09-18T14:12:14;25.60;99.90
46490;DHT22;32204;49.160;8.580;2023-09-18T14:14:43;25.60;99.90
46490;DHT22;32204;49.160;8.580;2023-09-18T14:17:10;25.60;99.90
46490;DHT22;32204;49.160;8.580;2023-09-18T14:19:35;25.60;99.90
46490;DHT22;32204;49.160;8.580;2023-09-18T14:22:04;25.60;99.90
46490;DHT22;32204;49.160;8.580;2023-09-18T14:24:33;25.60;99.90
46490;DHT22;32204;49.160;8.580;2023-09-18T14:27:08;25.90;99.90
46490;DHT22;32204;49.160;8.580;2023-09-18T14:29:34;26.10;99.90
46490;DHT22;32204;49.160;8.580;2023-09-18T14:32:00;26.30;99.90
46490;DHT22;32204;49.160;8.580;2023-09-18T14:34:26;26.50;99.90
46490;DHT22;32204;49.160;8.580;2023-09-18T14:36:52;26.40;99.90
46490;DHT22;32204;49.160;8.580;2023-09-18T14:39:17;26.50;99.90
46490;DHT22;32204;49.160;8.580;2023-09-18T14:41:43;26.60;99.90
46490;DHT22;32204;49.160;8.580;2023-09-18T14:44:09;26.50;99.90
46490;DHT22;32204;49.160;8.580;2023-09-18T14:46:36;26.40;99.90
46490;DHT22;32204;49.160;8.580;2023-09-18T14:49:04;26.60;99.90
46490;DHT22;32204;49.160;8.580;2023-09-18T14:51:30;26.70;99.90
46490;DHT22;32204;49.160;8.580;2023-09-18T14:53:56;26.70;99.90
46490;DHT22;32204;49.160;8.580;2023-09-18T14:56:23;26.50;99.90
46490;DHT22;32204;49.160;8.580;2023-09-18T14:58:48;26.70;99.90
46490;DHT22;32204;49.160;8.580;2023-09-18T15:01:15;26.80;99.90
46490;DHT22;32204;49.160;8.580;2023-09-18T15:03:41;26.80;99.90
46490;DHT22;32204;49.160;8.580;2023-09-18T15:06:07;26.80;99.90
46490;DHT22;32204;49.160;8.580;2023-09-18T15:08:36;27.00;99.90
46490;DHT22;32204;49.160;8.580;2023-09-18T15:11:02;27.10;99.90
46490;DHT22;32204;49.160;8.580;2023-09-18T15:13:30;27.10;99.90
46490;DHT22;32204;49.160;8.580;2023-09-18T15:15:56;27.00;99.90
46490;DHT22;32204;49.160;8.580;2023-09-18T15:18:22;27.10;99.90
46490;DHT22;32204;49.160;8.580;2023-09-18T15:20:48;27.00;99.90
46490;DHT22;32204;49.160;8.580;2023-09-18T15:23:22;26.90;99.90
46490;DHT22;32204;49.160;8.580;2023-09-18T15:25:52;26.90;99.90
46490;DHT22;32204;49.160;8.580;2023-09-18T15:28:21;26.80;99.90
46490;DHT22;32204;49.160;8.580;2023-09-18T15:30:47;26.80;99.90
46490;DHT22;32204;49.160;8.580;2023-09-18T15:33:13;26.80;99.90
46490;DHT22;32204;49.160;8.580;2023-09-18T15:35:42;26.70;99.90
46490;DHT22;32204;49.160;8.580;2023-09-18T15:38:08;26.70;99.90
46490;DHT22;32204;49.160;8.580;2023-09-18T15:40:34;26.70;99.90
46490;DHT22;32204;49.160;8.580;2023-09-18T15:42:59;26.70;99.90
46490;DHT22;32204;49.160;8.580;2023-09-18T15:45:25;26.70;99.90
46490;DHT22;32204;49.160;8.580;2023-09-18T15:47:51;26.70;99.90
46490;DHT22;32204;49.160;8.580;2023-09-18T15:50:17;26.70;99.90